sensor_id;sensor_type;location;lat;lon;timestamp;P1;durP1;ratioP1;P2;durP2;ratioP2
30723;SDS011;17473;52.286;20.930;2022-09-29T00:01:04;14.60;;;9.60;;
30723;SDS011;17473;52.286;20.930;2022-09-29T00:03:31;15.63;;;10.20;;
30723;SDS011;17473;52.286;20.930;2022-09-29T00:05:59;12.77;;;9.50;;
30723;SDS011;17473;52.286;20.930;2022-09-29T00:08:27;14.53;;;9.10;;
30723;SDS011;17473;52.286;20.930;2022-09-29T00:10:56;12.87;;;8.83;;
30723;SDS011;17473;52.286;20.930;2022-09-29T00:13:23;12.40;;;8.83;;
30723;SDS011;17473;52.286;20.930;2022-09-29T00:15:57;12.50;;;8.83;;
30723;SDS011;17473;52.286;20.930;2022-09-29T00:18:26;12.93;;;8.53;;
30723;SDS011;17473;52.286;20.930;2022-09-29T00:23:31;9.70;;;7.20;;
30723;SDS011;17473;52.286;20.930;2022-09-29T00:26:13;11.33;;;7.27;;
30723;SDS011;17473;52.286;20.930;2022-09-29T00:28:51;10.20;;;6.57;;
30723;SDS011;17473;52.286;20.930;2022-09-29T00:31:25;12.57;;;7.20;;
30723;SDS011;17473;52.286;20.930;2022-09-29T00:33:55;10.07;;;7.50;;
30723;SDS011;17473;52.286;20.930;2022-09-29T00:36:22;12.13;;;7.73;;
30723;SDS011;17473;52.286;20.930;2022-09-29T00:38:50;16.63;;;7.50;;
30723;SDS011;17473;52.286;20.930;2022-09-29T00:41:19;12.83;;;8.10;;
30723;SDS011;17473;52.286;20.930;2022-09-29T00:54:27;13.50;;;8.40;;
30723;SDS011;17473;52.286;20.930;2022-09-29T00:57:02;13.10;;;9.43;;
30723;SDS011;17473;52.286;20.930;2022-09-29T00:59:32;12.43;;;8.47;;
30723;SDS011;17473;52.286;20.930;2022-09-29T01:02:26;13.53;;;8.73;;
30723;SDS011;17473;52.286;20.930;2022-09-29T01:04:58;13.57;;;8.90;;
30723;SDS011;17473;52.286;20.930;2022-09-29T01:07:28;16.27;;;9.20;;
30723;SDS011;17473;52.286;20.930;2022-09-29T01:09:55;12.10;;;8.83;;
30723;SDS011;17473;52.286;20.930;2022-09-29T01:12:23;12.20;;;9.33;;
30723;SDS011;17473;52.286;20.930;2022-09-29T01:14:51;12.43;;;9.30;;
30723;SDS011;17473;52.286;20.930;2022-09-29T01:17:20;10.87;;;8.13;;
30723;SDS011;17473;52.286;20.930;2022-09-29T01:31:49;11.57;;;8.13;;
30723;SDS011;17473;52.286;20.930;2022-09-29T01:34:36;8.93;;;7.40;;
30723;SDS011;17473;52.286;20.930;2022-09-29T01:40:26;10.13;;;7.63;;
30723;SDS011;17473;52.286;20.930;2022-09-29T01:43:11;10.23;;;7.50;;
30723;SDS011;17473;52.286;20.930;2022-09-29T01:45:55;11.13;;;7.83;;
30723;SDS011;17473;52.286;20.930;2022-09-29T01:48:31;15.70;;;7.83;;
30723;SDS011;17473;52.286;20.930;2022-09-29T01:51:08;10.87;;;8.17;;
30723;SDS011;17473;52.286;20.930;2022-09-29T01:53:48;13.00;;;8.53;;
30723;SDS011;17473;52.286;20.930;2022-09-29T01:56:22;9.30;;;7.43;;
30723;SDS011;17473;52.286;20.930;2022-09-29T01:58:59;11.07;;;8.03;;
30723;SDS011;17473;52.286;20.930;2022-09-29T02:01:49;11.53;;;7.40;;
30723;SDS011;17473;52.286;20.930;2022-09-29T02:04:31;10.30;;;8.23;;
30723;SDS011;17473;52.286;20.930;2022-09-29T02:07:07;10.73;;;7.70;;
30723;SDS011;17473;52.286;20.930;2022-09-29T02:09:46;11.57;;;8.20;;
30723;SDS011;17473;52.286;20.930;2022-09-29T02:12:20;12.27;;;7.77;;
30723;SDS011;17473;52.286;20.930;2022-09-29T02:14:52;12.27;;;7.70;;
30723;SDS011;17473;52.286;20.930;2022-09-29T02:17:21;11.73;;;7.60;;
30723;SDS011;17473;52.286;20.930;2022-09-29T02:19:58;12.23;;;8.50;;
30723;SDS011;17473;52.286;20.930;2022-09-29T02:22:25;11.40;;;7.37;;
30723;SDS011;17473;52.286;20.930;2022-09-29T02:24:53;10.13;;;7.37;;
30723;SDS011;17473;52.286;20.930;2022-09-29T02:27:24;10.93;;;7.83;;
30723;SDS011;17473;52.286;20.930;2022-09-29T02:29:56;12.37;;;7.60;;
30723;SDS011;17473;52.286;20.930;2022-09-29T02:32:24;11.43;;;8.13;;
30723;SDS011;17473;52.286;20.930;2022-09-29T02:34:52;10.73;;;6.87;;
30723;SDS011;17473;52.286;20.930;2022-09-29T02:46:24;13.67;;;8.13;;
30723;SDS011;17473;52.286;20.930;2022-09-29T02:51:52;13.40;;;8.23;;
30723;SDS011;17473;52.286;20.930;2022-09-29T03:00:07;11.43;;;8.50;;
30723;SDS011;17473;52.286;20.930;2022-09-29T03:02:42;12.67;;;8.10;;
30723;SDS011;17473;52.286;20.930;2022-09-29T03:05:17;9.40;;;7.50;;
30723;SDS011;17473;52.286;20.930;2022-09-29T03:07:47;10.93;;;8.80;;
30723;SDS011;17473;52.286;20.930;2022-09-29T03:10:15;12.93;;;8.07;;
30723;SDS011;17473;52.286;20.930;2022-09-29T03:12:44;10.10;;;8.10;;
30723;SDS011;17473;52.286;20.930;2022-09-29T03:15:12;21.27;;;8.77;;
30723;SDS011;17473;52.286;20.930;2022-09-29T03:17:40;9.43;;;7.63;;
30723;SDS011;17473;52.286;20.930;2022-09-29T03:20:07;8.43;;;7.50;;
30723;SDS011;17473;52.286;20.930;2022-09-29T03:22:35;11.43;;;8.47;;
30723;SDS011;17473;52.286;20.930;2022-09-29T03:25:03;10.97;;;8.17;;
30723;SDS011;17473;52.286;20.930;2022-09-29T03:27:32;10.73;;;8.13;;
30723;SDS011;17473;52.286;20.930;2022-09-29T03:29:59;12.67;;;7.97;;
30723;SDS011;17473;52.286;20.930;2022-09-29T03:32:26;9.90;;;8.17;;
30723;SDS011;17473;52.286;20.930;2022-09-29T03:34:53;9.20;;;7.37;;
30723;SDS011;17473;52.286;20.930;2022-09-29T03:37:20;10.33;;;7.97;;
30723;SDS011;17473;52.286;20.930;2022-09-29T03:39:47;10.17;;;8.37;;
30723;SDS011;17473;52.286;20.930;2022-09-29T03:42:14;11.30;;;8.03;;
30723;SDS011;17473;52.286;20.930;2022-09-29T03:44:41;10.00;;;7.93;;
30723;SDS011;17473;52.286;20.930;2022-09-29T03:47:08;11.40;;;8.40;;
30723;SDS011;17473;52.286;20.930;2022-09-29T03:49:35;9.53;;;7.40;;
30723;SDS011;17473;52.286;20.930;2022-09-29T03:52:02;9.53;;;8.00;;
30723;SDS011;17473;52.286;20.930;2022-09-29T03:54:29;10.10;;;7.97;;
30723;SDS011;17473;52.286;20.930;2022-09-29T03:56:56;10.93;;;7.63;;
30723;SDS011;17473;52.286;20.930;2022-09-29T03:59:23;11.27;;;7.90;;
30723;SDS011;17473;52.286;20.930;2022-09-29T04:01:50;10.97;;;8.53;;
30723;SDS011;17473;52.286;20.930;2022-09-29T04:04:17;10.57;;;8.10;;
30723;SDS011;17473;52.286;20.930;2022-09-29T04:06:44;10.40;;;8.20;;
30723;SDS011;17473;52.286;20.930;2022-09-29T04:09:11;10.57;;;7.93;;
30723;SDS011;17473;52.286;20.930;2022-09-29T04:11:38;12.43;;;8.40;;
30723;SDS011;17473;52.286;20.930;2022-09-29T04:14:05;10.03;;;8.07;;
30723;SDS011;17473;52.286;20.930;2022-09-29T04:16:32;12.53;;;7.63;;
30723;SDS011;17473;52.286;20.930;2022-09-29T04:18:59;9.90;;;8.03;;
30723;SDS011;17473;52.286;20.930;2022-09-29T04:21:26;10.33;;;8.50;;
30723;SDS011;17473;52.286;20.930;2022-09-29T04:23:53;9.13;;;7.40;;
30723;SDS011;17473;52.286;20.930;2022-09-29T04:26:20;11.03;;;8.40;;
30723;SDS011;17473;52.286;20.930;2022-09-29T04:28:47;12.13;;;8.70;;
30723;SDS011;17473;52.286;20.930;2022-09-29T04:31:14;9.73;;;7.70;;
30723;SDS011;17473;52.286;20.930;2022-09-29T04:33:41;10.43;;;8.20;;
30723;SDS011;17473;52.286;20.930;2022-09-29T04:36:08;10.30;;;8.23;;
30723;SDS011;17473;52.286;20.930;2022-09-29T04:38:35;13.00;;;7.80;;
30723;SDS011;17473;52.286;20.930;2022-09-29T04:41:02;11.37;;;8.90;;
30723;SDS011;17473;52.286;20.930;2022-09-29T04:43:30;12.47;;;8.13;;
30723;SDS011;17473;52.286;20.930;2022-09-29T04:46:02;12.50;;;8.63;;
30723;SDS011;17473;52.286;20.930;2022-09-29T04:48:32;9.67;;;8.20;;
30723;SDS011;17473;52.286;20.930;2022-09-29T04:51:01;9.90;;;8.27;;
30723;SDS011;17473;52.286;20.930;2022-09-29T04:53:29;14.50;;;8.83;;
30723;SDS011;17473;52.286;20.930;2022-09-29T04:55:57;12.53;;;9.80;;
30723;SDS011;17473;52.286;20.930;2022-09-29T04:58:24;11.33;;;8.70;;
30723;SDS011;17473;52.286;20.930;2022-09-29T05:00:51;12.43;;;9.13;;
30723;SDS011;17473;52.286;20.930;2022-09-29T05:03:18;15.27;;;9.50;;
30723;SDS011;17473;52.286;20.930;2022-09-29T05:05:45;12.83;;;8.63;;
30723;SDS011;17473;52.286;20.930;2022-09-29T05:08:12;10.80;;;8.50;;
30723;SDS011;17473;52.286;20.930;2022-09-29T05:10:39;11.87;;;9.00;;
30723;SDS011;17473;52.286;20.930;2022-09-29T05:13:06;10.67;;;8.83;;
30723;SDS011;17473;52.286;20.930;2022-09-29T05:15:33;11.03;;;8.73;;
30723;SDS011;17473;52.286;20.930;2022-09-29T05:18:00;11.43;;;8.97;;
30723;SDS011;17473;52.286;20.930;2022-09-29T05:20:28;10.80;;;8.93;;
30723;SDS011;17473;52.286;20.930;2022-09-29T05:23:06;14.00;;;9.90;;
30723;SDS011;17473;52.286;20.930;2022-09-29T05:25:35;15.73;;;9.93;;
30723;SDS011;17473;52.286;20.930;2022-09-29T05:28:03;12.03;;;9.47;;
30723;SDS011;17473;52.286;20.930;2022-09-29T05:30:30;12.10;;;8.83;;
30723;SDS011;17473;52.286;20.930;2022-09-29T05:32:57;14.43;;;9.37;;
30723;SDS011;17473;52.286;20.930;2022-09-29T05:35:24;15.27;;;10.00;;
30723;SDS011;17473;52.286;20.930;2022-09-29T05:37:51;14.50;;;9.30;;
30723;SDS011;17473;52.286;20.930;2022-09-29T05:40:18;11.83;;;9.17;;
30723;SDS011;17473;52.286;20.930;2022-09-29T05:42:49;12.53;;;9.87;;
30723;SDS011;17473;52.286;20.930;2022-09-29T05:45:17;12.10;;;9.50;;
30723;SDS011;17473;52.286;20.930;2022-09-29T05:47:44;13.30;;;9.47;;
30723;SDS011;17473;52.286;20.930;2022-09-29T05:50:11;14.27;;;9.17;;
30723;SDS011;17473;52.286;20.930;2022-09-29T05:52:39;9.80;;;8.13;;
30723;SDS011;17473;52.286;20.930;2022-09-29T05:55:06;13.37;;;10.50;;
30723;SDS011;17473;52.286;20.930;2022-09-29T05:57:35;12.63;;;8.77;;
30723;SDS011;17473;52.286;20.930;2022-09-29T06:00:02;12.87;;;9.23;;
30723;SDS011;17473;52.286;20.930;2022-09-29T06:02:30;15.73;;;10.67;;
30723;SDS011;17473;52.286;20.930;2022-09-29T06:04:57;14.03;;;9.13;;
30723;SDS011;17473;52.286;20.930;2022-09-29T06:07:25;13.90;;;9.90;;
30723;SDS011;17473;52.286;20.930;2022-09-29T06:09:52;13.00;;;9.67;;
30723;SDS011;17473;52.286;20.930;2022-09-29T06:12:20;15.53;;;9.90;;
30723;SDS011;17473;52.286;20.930;2022-09-29T06:14:47;15.93;;;10.07;;
30723;SDS011;17473;52.286;20.930;2022-09-29T06:17:14;14.57;;;9.57;;
30723;SDS011;17473;52.286;20.930;2022-09-29T06:19:41;14.57;;;10.60;;
30723;SDS011;17473;52.286;20.930;2022-09-29T06:22:10;13.90;;;10.30;;
30723;SDS011;17473;52.286;20.930;2022-09-29T06:24:37;16.30;;;9.83;;
30723;SDS011;17473;52.286;20.930;2022-09-29T06:27:04;13.63;;;10.13;;
30723;SDS011;17473;52.286;20.930;2022-09-29T06:29:31;13.00;;;10.60;;
30723;SDS011;17473;52.286;20.930;2022-09-29T06:31:57;13.17;;;10.63;;
30723;SDS011;17473;52.286;20.930;2022-09-29T06:34:25;15.00;;;10.17;;
30723;SDS011;17473;52.286;20.930;2022-09-29T06:36:51;12.57;;;10.23;;
30723;SDS011;17473;52.286;20.930;2022-09-29T06:39:37;14.67;;;11.10;;
30723;SDS011;17473;52.286;20.930;2022-09-29T06:42:04;13.83;;;10.93;;
30723;SDS011;17473;52.286;20.930;2022-09-29T06:44:31;13.43;;;11.07;;
30723;SDS011;17473;52.286;20.930;2022-09-29T06:46:58;17.17;;;12.03;;
30723;SDS011;17473;52.286;20.930;2022-09-29T06:49:26;13.07;;;10.87;;
30723;SDS011;17473;52.286;20.930;2022-09-29T06:51:53;13.27;;;10.57;;
30723;SDS011;17473;52.286;20.930;2022-09-29T06:54:20;13.93;;;10.90;;
30723;SDS011;17473;52.286;20.930;2022-09-29T06:56:51;16.57;;;11.57;;
30723;SDS011;17473;52.286;20.930;2022-09-29T06:59:20;12.23;;;10.60;;
30723;SDS011;17473;52.286;20.930;2022-09-29T07:01:50;15.43;;;11.63;;
30723;SDS011;17473;52.286;20.930;2022-09-29T07:04:17;13.27;;;11.27;;
30723;SDS011;17473;52.286;20.930;2022-09-29T07:06:46;19.03;;;10.80;;
30723;SDS011;17473;52.286;20.930;2022-09-29T07:09:14;15.13;;;11.10;;
30723;SDS011;17473;52.286;20.930;2022-09-29T07:11:42;16.17;;;10.03;;
30723;SDS011;17473;52.286;20.930;2022-09-29T07:14:13;12.53;;;10.33;;
30723;SDS011;17473;52.286;20.930;2022-09-29T07:16:44;13.47;;;10.00;;
30723;SDS011;17473;52.286;20.930;2022-09-29T07:19:14;13.27;;;10.10;;
30723;SDS011;17473;52.286;20.930;2022-09-29T07:21:43;13.07;;;9.70;;
30723;SDS011;17473;52.286;20.930;2022-09-29T07:24:14;17.93;;;10.00;;
30723;SDS011;17473;52.286;20.930;2022-09-29T07:26:41;10.30;;;8.80;;
30723;SDS011;17473;52.286;20.930;2022-09-29T07:29:09;10.93;;;8.47;;
30723;SDS011;17473;52.286;20.930;2022-09-29T07:31:41;13.50;;;8.20;;
30723;SDS011;17473;52.286;20.930;2022-09-29T07:34:18;10.80;;;8.40;;
30723;SDS011;17473;52.286;20.930;2022-09-29T07:36:46;13.80;;;8.80;;
30723;SDS011;17473;52.286;20.930;2022-09-29T07:39:13;11.13;;;8.70;;
30723;SDS011;17473;52.286;20.930;2022-09-29T07:41:41;11.07;;;8.03;;
30723;SDS011;17473;52.286;20.930;2022-09-29T07:44:08;12.90;;;8.60;;
30723;SDS011;17473;52.286;20.930;2022-09-29T07:46:35;11.20;;;8.20;;
30723;SDS011;17473;52.286;20.930;2022-09-29T07:49:02;11.80;;;8.57;;
30723;SDS011;17473;52.286;20.930;2022-09-29T07:51:29;11.07;;;8.00;;
30723;SDS011;17473;52.286;20.930;2022-09-29T07:54:00;12.60;;;8.00;;
30723;SDS011;17473;52.286;20.930;2022-09-29T07:56:29;12.37;;;8.53;;
30723;SDS011;17473;52.286;20.930;2022-09-29T07:58:58;14.20;;;8.73;;
30723;SDS011;17473;52.286;20.930;2022-09-29T08:01:27;9.67;;;8.00;;
30723;SDS011;17473;52.286;20.930;2022-09-29T08:03:56;14.18;;;8.10;;
30723;SDS011;17473;52.286;20.930;2022-09-29T08:06:24;8.67;;;6.90;;
30723;SDS011;17473;52.286;20.930;2022-09-29T08:08:52;9.80;;;7.60;;
30723;SDS011;17473;52.286;20.930;2022-09-29T08:11:30;9.75;;;7.85;;
30723;SDS011;17473;52.286;20.930;2022-09-29T08:13:59;11.35;;;7.55;;
30723;SDS011;17473;52.286;20.930;2022-09-29T08:16:27;8.93;;;7.53;;
30723;SDS011;17473;52.286;20.930;2022-09-29T08:18:54;9.88;;;6.68;;
30723;SDS011;17473;52.286;20.930;2022-09-29T08:21:21;8.57;;;7.20;;
30723;SDS011;17473;52.286;20.930;2022-09-29T08:23:48;11.00;;;7.13;;
30723;SDS011;17473;52.286;20.930;2022-09-29T08:26:16;13.63;;;7.78;;
30723;SDS011;17473;52.286;20.930;2022-09-29T08:29:02;8.88;;;6.97;;
30723;SDS011;17473;52.286;20.930;2022-09-29T08:31:34;7.45;;;6.13;;
30723;SDS011;17473;52.286;20.930;2022-09-29T08:34:03;10.60;;;6.97;;
30723;SDS011;17473;52.286;20.930;2022-09-29T08:36:30;8.95;;;6.55;;
30723;SDS011;17473;52.286;20.930;2022-09-29T08:38:58;7.55;;;6.72;;
30723;SDS011;17473;52.286;20.930;2022-09-29T08:43:56;8.20;;;5.85;;
30723;SDS011;17473;52.286;20.930;2022-09-29T08:47:04;8.73;;;6.00;;
30723;SDS011;17473;52.286;20.930;2022-09-29T08:49:51;8.80;;;5.88;;
30723;SDS011;17473;52.286;20.930;2022-09-29T08:52:36;6.45;;;5.70;;
30723;SDS011;17473;52.286;20.930;2022-09-29T08:57:47;6.35;;;5.50;;
30723;SDS011;17473;52.286;20.930;2022-09-29T09:00:28;9.30;;;5.90;;
30723;SDS011;17473;52.286;20.930;2022-09-29T09:03:40;9.30;;;6.25;;
30723;SDS011;17473;52.286;20.930;2022-09-29T09:12:36;7.28;;;5.63;;
30723;SDS011;17473;52.286;20.930;2022-09-29T09:24:27;11.35;;;6.32;;
30723;SDS011;17473;52.286;20.930;2022-09-29T09:27:13;9.70;;;6.32;;
30723;SDS011;17473;52.286;20.930;2022-09-29T09:29:48;8.70;;;6.25;;
30723;SDS011;17473;52.286;20.930;2022-09-29T09:32:20;7.13;;;5.50;;
30723;SDS011;17473;52.286;20.930;2022-09-29T09:34:55;8.68;;;6.03;;
30723;SDS011;17473;52.286;20.930;2022-09-29T09:37:49;6.30;;;5.70;;
30723;SDS011;17473;52.286;20.930;2022-09-29T09:40:20;6.50;;;4.93;;
30723;SDS011;17473;52.286;20.930;2022-09-29T09:43:10;7.78;;;6.25;;
30723;SDS011;17473;52.286;20.930;2022-09-29T09:46:07;7.60;;;5.32;;
30723;SDS011;17473;52.286;20.930;2022-09-29T09:51:31;7.70;;;5.18;;
30723;SDS011;17473;52.286;20.930;2022-09-29T09:54:36;6.75;;;5.63;;
30723;SDS011;17473;52.286;20.930;2022-09-29T10:03:09;8.63;;;5.57;;
30723;SDS011;17473;52.286;20.930;2022-09-29T10:05:41;7.97;;;5.47;;
30723;SDS011;17473;52.286;20.930;2022-09-29T10:10:52;8.63;;;5.75;;
30723;SDS011;17473;52.286;20.930;2022-09-29T10:13:25;19.27;;;7.13;;
30723;SDS011;17473;52.286;20.930;2022-09-29T10:15:59;36.45;;;8.23;;
30723;SDS011;17473;52.286;20.930;2022-09-29T10:18:46;7.97;;;6.72;;
30723;SDS011;17473;52.286;20.930;2022-09-29T10:23:55;12.85;;;7.45;;
30723;SDS011;17473;52.286;20.930;2022-09-29T10:26:26;15.88;;;6.57;;
30723;SDS011;17473;52.286;20.930;2022-09-29T10:29:24;13.45;;;6.90;;
30723;SDS011;17473;52.286;20.930;2022-09-29T10:32:08;12.55;;;7.15;;
30723;SDS011;17473;52.286;20.930;2022-09-29T10:34:45;9.65;;;7.07;;
30723;SDS011;17473;52.286;20.930;2022-09-29T10:37:45;16.40;;;7.93;;
30723;SDS011;17473;52.286;20.930;2022-09-29T10:40:18;7.47;;;6.53;;
30723;SDS011;17473;52.286;20.930;2022-09-29T10:42:49;12.18;;;6.85;;
30723;SDS011;17473;52.286;20.930;2022-09-29T10:50:26;12.93;;;7.90;;
30723;SDS011;17473;52.286;20.930;2022-09-29T10:53:04;13.70;;;7.70;;
30723;SDS011;17473;52.286;20.930;2022-09-29T10:55:48;12.57;;;7.50;;
30723;SDS011;17473;52.286;20.930;2022-09-29T10:58:32;23.38;;;7.85;;
30723;SDS011;17473;52.286;20.930;2022-09-29T11:01:21;18.58;;;8.60;;
30723;SDS011;17473;52.286;20.930;2022-09-29T11:06:27;9.82;;;7.55;;
30723;SDS011;17473;52.286;20.930;2022-09-29T11:14:24;13.90;;;7.85;;
30723;SDS011;17473;52.286;20.930;2022-09-29T11:17:23;13.82;;;8.48;;
30723;SDS011;17473;52.286;20.930;2022-09-29T11:20:04;13.05;;;8.45;;
30723;SDS011;17473;52.286;20.930;2022-09-29T11:25:36;19.02;;;8.43;;
30723;SDS011;17473;52.286;20.930;2022-09-29T11:28:42;32.05;;;9.60;;
30723;SDS011;17473;52.286;20.930;2022-09-29T11:31:54;25.05;;;8.48;;
30723;SDS011;17473;52.286;20.930;2022-09-29T11:40:11;18.38;;;9.25;;
30723;SDS011;17473;52.286;20.930;2022-09-29T11:43:05;9.73;;;7.72;;
30723;SDS011;17473;52.286;20.930;2022-09-29T11:58:08;10.18;;;7.25;;
30723;SDS011;17473;52.286;20.930;2022-09-29T12:03:38;9.07;;;7.43;;
30723;SDS011;17473;52.286;20.930;2022-09-29T12:06:43;8.50;;;7.45;;
30723;SDS011;17473;52.286;20.930;2022-09-29T12:18:12;8.52;;;7.57;;
30723;SDS011;17473;52.286;20.930;2022-09-29T12:20:45;11.32;;;8.88;;
30723;SDS011;17473;52.286;20.930;2022-09-29T12:23:17;14.18;;;9.82;;
30723;SDS011;17473;52.286;20.930;2022-09-29T12:25:51;16.42;;;9.35;;
30723;SDS011;17473;52.286;20.930;2022-09-29T12:28:36;9.38;;;7.10;;
30723;SDS011;17473;52.286;20.930;2022-09-29T12:31:22;13.10;;;6.95;;
30723;SDS011;17473;52.286;20.930;2022-09-29T12:34:05;9.68;;;7.80;;
30723;SDS011;17473;52.286;20.930;2022-09-29T12:36:50;9.25;;;7.65;;
30723;SDS011;17473;52.286;20.930;2022-09-29T12:39:33;8.25;;;7.03;;
30723;SDS011;17473;52.286;20.930;2022-09-29T12:48:21;9.13;;;6.88;;
30723;SDS011;17473;52.286;20.930;2022-09-29T12:51:17;10.60;;;7.72;;
30723;SDS011;17473;52.286;20.930;2022-09-29T12:56:55;16.10;;;7.32;;
30723;SDS011;17473;52.286;20.930;2022-09-29T12:59:43;12.57;;;7.53;;
30723;SDS011;17473;52.286;20.930;2022-09-29T13:08:32;10.38;;;6.97;;
30723;SDS011;17473;52.286;20.930;2022-09-29T13:14:35;10.13;;;7.60;;
30723;SDS011;17473;52.286;20.930;2022-09-29T13:23:04;9.18;;;7.00;;
30723;SDS011;17473;52.286;20.930;2022-09-29T13:26:11;9.50;;;7.13;;
30723;SDS011;17473;52.286;20.930;2022-09-29T13:28:52;9.27;;;7.55;;
30723;SDS011;17473;52.286;20.930;2022-09-29T13:31:28;12.00;;;6.95;;
30723;SDS011;17473;52.286;20.930;2022-09-29T13:34:01;8.73;;;6.95;;
30723;SDS011;17473;52.286;20.930;2022-09-29T13:36:38;7.82;;;6.72;;
30723;SDS011;17473;52.286;20.930;2022-09-29T13:39:18;8.73;;;6.70;;
30723;SDS011;17473;52.286;20.930;2022-09-29T13:41:53;9.48;;;7.20;;
30723;SDS011;17473;52.286;20.930;2022-09-29T13:44:22;11.75;;;7.10;;
30723;SDS011;17473;52.286;20.930;2022-09-29T13:46:54;9.32;;;6.65;;
30723;SDS011;17473;52.286;20.930;2022-09-29T13:49:23;9.70;;;7.20;;
30723;SDS011;17473;52.286;20.930;2022-09-29T13:54:42;10.00;;;6.47;;
30723;SDS011;17473;52.286;20.930;2022-09-29T14:07:49;9.48;;;7.18;;
30723;SDS011;17473;52.286;20.930;2022-09-29T14:13:02;37.22;;;23.15;;
30723;SDS011;17473;52.286;20.930;2022-09-29T14:19:00;58.72;;;39.58;;
30723;SDS011;17473;52.286;20.930;2022-09-29T14:21:49;28.65;;;19.50;;
30723;SDS011;17473;52.286;20.930;2022-09-29T14:30:11;10.07;;;8.25;;
30723;SDS011;17473;52.286;20.930;2022-09-29T14:32:56;10.10;;;7.00;;
30723;SDS011;17473;52.286;20.930;2022-09-29T14:41:47;8.68;;;7.72;;
30723;SDS011;17473;52.286;20.930;2022-09-29T14:53:08;10.93;;;7.63;;
30723;SDS011;17473;52.286;20.930;2022-09-29T14:56:01;9.18;;;6.97;;
30723;SDS011;17473;52.286;20.930;2022-09-29T15:04:52;11.27;;;7.32;;
30723;SDS011;17473;52.286;20.930;2022-09-29T15:07:20;11.43;;;7.72;;
30723;SDS011;17473;52.286;20.930;2022-09-29T15:09:54;10.20;;;6.95;;
30723;SDS011;17473;52.286;20.930;2022-09-29T15:12:26;10.18;;;6.50;;
30723;SDS011;17473;52.286;20.930;2022-09-29T15:14:57;8.63;;;6.90;;
30723;SDS011;17473;52.286;20.930;2022-09-29T15:20:52;14.15;;;8.23;;
30723;SDS011;17473;52.286;20.930;2022-09-29T15:26:34;11.25;;;7.85;;
30723;SDS011;17473;52.286;20.930;2022-09-29T15:29:04;9.10;;;6.35;;
30723;SDS011;17473;52.286;20.930;2022-09-29T15:31:32;9.98;;;7.05;;
30723;SDS011;17473;52.286;20.930;2022-09-29T15:34:01;11.85;;;7.40;;
30723;SDS011;17473;52.286;20.930;2022-09-29T15:36:35;9.82;;;6.95;;
30723;SDS011;17473;52.286;20.930;2022-09-29T15:39:06;15.25;;;7.65;;
30723;SDS011;17473;52.286;20.930;2022-09-29T15:41:58;14.93;;;7.38;;
30723;SDS011;17473;52.286;20.930;2022-09-29T15:44:27;12.90;;;6.95;;
30723;SDS011;17473;52.286;20.930;2022-09-29T15:46:59;12.43;;;7.60;;
30723;SDS011;17473;52.286;20.930;2022-09-29T15:49:26;9.80;;;6.95;;
30723;SDS011;17473;52.286;20.930;2022-09-29T15:54:29;12.18;;;8.45;;
30723;SDS011;17473;52.286;20.930;2022-09-29T15:57:00;12.30;;;8.35;;
30723;SDS011;17473;52.286;20.930;2022-09-29T15:59:48;18.90;;;8.38;;
30723;SDS011;17473;52.286;20.930;2022-09-29T16:02:19;15.25;;;8.05;;
30723;SDS011;17473;52.286;20.930;2022-09-29T16:05:02;14.35;;;9.25;;
30723;SDS011;17473;52.286;20.930;2022-09-29T16:07:37;14.68;;;7.85;;
30723;SDS011;17473;52.286;20.930;2022-09-29T16:10:15;13.63;;;9.95;;
30723;SDS011;17473;52.286;20.930;2022-09-29T16:12:47;14.95;;;8.95;;
30723;SDS011;17473;52.286;20.930;2022-09-29T16:15:41;22.77;;;10.23;;
30723;SDS011;17473;52.286;20.930;2022-09-29T16:18:28;20.45;;;11.40;;
30723;SDS011;17473;52.286;20.930;2022-09-29T16:21:11;20.27;;;10.93;;
30723;SDS011;17473;52.286;20.930;2022-09-29T16:23:47;17.63;;;10.60;;
30723;SDS011;17473;52.286;20.930;2022-09-29T16:29:45;20.70;;;10.03;;
30723;SDS011;17473;52.286;20.930;2022-09-29T16:31:52;20.87;;;11.37;;
30723;SDS011;17473;52.286;20.930;2022-09-29T16:36:48;16.23;;;10.67;;
30723;SDS011;17473;52.286;20.930;2022-09-29T16:39:23;17.27;;;10.87;;
30723;SDS011;17473;52.286;20.930;2022-09-29T16:41:54;20.10;;;11.33;;
30723;SDS011;17473;52.286;20.930;2022-09-29T16:44:31;22.10;;;11.87;;
30723;SDS011;17473;52.286;20.930;2022-09-29T16:49:36;20.67;;;12.07;;
30723;SDS011;17473;52.286;20.930;2022-09-29T16:52:31;18.33;;;13.47;;
30723;SDS011;17473;52.286;20.930;2022-09-29T16:57:58;22.63;;;12.07;;
30723;SDS011;17473;52.286;20.930;2022-09-29T17:00:39;16.13;;;11.13;;
30723;SDS011;17473;52.286;20.930;2022-09-29T17:03:06;22.47;;;11.70;;
30723;SDS011;17473;52.286;20.930;2022-09-29T17:05:35;23.23;;;10.90;;
30723;SDS011;17473;52.286;20.930;2022-09-29T17:08:11;27.20;;;12.27;;
30723;SDS011;17473;52.286;20.930;2022-09-29T17:10:50;24.30;;;11.00;;
30723;SDS011;17473;52.286;20.930;2022-09-29T17:13:20;32.13;;;12.30;;
30723;SDS011;17473;52.286;20.930;2022-09-29T17:15:49;24.67;;;11.97;;
30723;SDS011;17473;52.286;20.930;2022-09-29T17:18:19;25.87;;;12.43;;
30723;SDS011;17473;52.286;20.930;2022-09-29T17:20:50;23.23;;;12.23;;
30723;SDS011;17473;52.286;20.930;2022-09-29T17:23:17;22.23;;;12.13;;
30723;SDS011;17473;52.286;20.930;2022-09-29T17:25:44;39.13;;;11.83;;
30723;SDS011;17473;52.286;20.930;2022-09-29T17:28:14;25.50;;;11.90;;
30723;SDS011;17473;52.286;20.930;2022-09-29T17:30:50;30.67;;;12.23;;
30723;SDS011;17473;52.286;20.930;2022-09-29T17:33:20;24.13;;;12.70;;
30723;SDS011;17473;52.286;20.930;2022-09-29T17:35:49;17.93;;;11.33;;
30723;SDS011;17473;52.286;20.930;2022-09-29T17:38:21;26.00;;;12.37;;
30723;SDS011;17473;52.286;20.930;2022-09-29T17:43:31;24.90;;;12.53;;
30723;SDS011;17473;52.286;20.930;2022-09-29T17:45:59;25.10;;;13.23;;
30723;SDS011;17473;52.286;20.930;2022-09-29T17:48:28;22.83;;;11.93;;
30723;SDS011;17473;52.286;20.930;2022-09-29T17:50:55;23.13;;;13.10;;
30723;SDS011;17473;52.286;20.930;2022-09-29T17:53:25;26.13;;;12.93;;
30723;SDS011;17473;52.286;20.930;2022-09-29T17:55:52;22.30;;;13.10;;
30723;SDS011;17473;52.286;20.930;2022-09-29T17:58:22;21.23;;;12.40;;
30723;SDS011;17473;52.286;20.930;2022-09-29T18:00:51;21.43;;;12.87;;
30723;SDS011;17473;52.286;20.930;2022-09-29T18:03:19;27.27;;;13.80;;
30723;SDS011;17473;52.286;20.930;2022-09-29T18:05:47;25.40;;;12.70;;
30723;SDS011;17473;52.286;20.930;2022-09-29T18:08:25;24.10;;;13.87;;
30723;SDS011;17473;52.286;20.930;2022-09-29T18:11:00;25.60;;;14.03;;
30723;SDS011;17473;52.286;20.930;2022-09-29T18:13:28;28.00;;;13.53;;
30723;SDS011;17473;52.286;20.930;2022-09-29T18:15:59;24.57;;;13.23;;
30723;SDS011;17473;52.286;20.930;2022-09-29T18:18:27;27.47;;;13.53;;
30723;SDS011;17473;52.286;20.930;2022-09-29T18:20:54;28.33;;;13.43;;
30723;SDS011;17473;52.286;20.930;2022-09-29T18:23:21;29.40;;;12.60;;
30723;SDS011;17473;52.286;20.930;2022-09-29T18:25:49;23.43;;;13.03;;
30723;SDS011;17473;52.286;20.930;2022-09-29T18:28:18;21.30;;;13.20;;
30723;SDS011;17473;52.286;20.930;2022-09-29T18:30:46;20.33;;;13.83;;
30723;SDS011;17473;52.286;20.930;2022-09-29T18:33:18;26.10;;;14.53;;
30723;SDS011;17473;52.286;20.930;2022-09-29T18:35:50;28.80;;;14.60;;